Mar 2021: Check out the pages added or updated for Air Quality in Howth, Sun/Moon and stars details, Irish Lifeboat Launches, Shipwrecks, Space weather observations, Pollen forecast & Fire Risk Rating!.
   Currently OK   -   there are no local weather warnings, but check here for tomorrow's warnings (if any).

Ireland METAR reports

 

EIDW - Dublin Airport, Ireland
Distance from station: WNW 13km
Updated: 19/04/2021 12:30
Mostly cloudy
Mostly cloudy
 Wind from SE
Wind: SE 19 km/h
Temperature: 12°C
Dew Point: 5°C
Humidity: 63%
Barometer: 1019 hPa
Clouds: Mostly cloudy
Visibility: 10 km
Cloud details: Few Clouds 914 m
Partly cloudy 1189 m
Mostly cloudy 2134 m
2021/04/19 11:30 EIDW 191130Z 13010KT 9999 FEW030 SCT039 BKN070 12/05 Q1019
EIME - Casement (mil), Ireland
Distance from station: WSW 26km
Updated: 19/04/2021 12:30
Mostly cloudy
Mostly cloudy
 Wind from WSW
Wind: WSW 15 km/h
Temperature: 11°C
Dew Point: 5°C
Humidity: 67%
Barometer: 1019 hPa
Clouds: Mostly cloudy
Visibility: 10 km
Cloud details: Few Clouds 610 m
Mostly cloudy 1402 m
2021/04/19 11:30 EIME 191130Z 25008KT 9999 FEW020 BKN046 11/05 Q1019
 
EGAC - Belfast Harbour, United Kingdom
Distance from station: N 140km
Updated: 19/04/2021 12:20
Clear
Clear
 Wind from SSE
Wind: SSE 22 km/h
Temperature: 11°C
Dew Point: 4°C
Humidity: 62%
Barometer: 1019 hPa
Clouds: Clear
Visibility: 10 km
2021/04/19 11:20 EGAC 191120Z AUTO 15012KT 9999 NCD 11/04 Q1019
EGAA - Belfast/Aldergro, United Kingdom
Distance from station: N 141km
Updated: 19/04/2021 12:20
Few Clouds
Few Clouds
 Wind from S
Wind: S 15 km/h
Temperature: 11°C
Dew Point: 4°C
Humidity: 62%
Barometer: 1019 hPa
Clouds: Few Clouds
Visibility: 10 km
Cloud details: Few Clouds 884 m
2021/04/19 11:20 EGAA 191120Z 18008KT 150V210 9999 FEW029 11/04 Q1019
 
EIWF - Waterford Arpt, Ireland
Distance from station: SSW 148km
Updated: 19/04/2021 12:30
Partly cloudy
Partly cloudy
 Wind from SSW
Wind: SSW 19 km/h
Temperature: 10°C
Wind Chill: 7°C
Dew Point: 6°C
Humidity: 76%
Barometer: 1020 hPa
Clouds: Partly cloudy
Visibility: 10 km
Cloud details: Few Clouds 549 m
Partly cloudy 1128 m
2021/04/19 11:30 EIWF 191130Z 20010KT 160V230 9999 FEW018 SCT037 10/06 Q1020
EIKN - Connaught Apt, Ireland
Distance from station: WNW 191km
Updated: 19/04/2021 10:30
NOT Current
Light rain, Overcast
Light rain, Overcast
 Wind from S
Wind: S 19 km/h
Temperature: 7°C
Wind Chill: 4°C
Dew Point: 7°C
Humidity: 100%
Barometer: 1017 hPa
Summary: Light rain
Clouds: Overcast
Visibility: 6 km
Cloud details: Overcast 122 m
2021/04/19 09:30 EIKN 190930Z 18010KT 150V230 6000 -RA OVC004 07/07 Q1017 TEMPO 3000
 
EISG - Sligo Arpt, Ireland
Distance from station: WNW 195km
Updated: 19/04/2021 12:30
Light rain, Overcast
Light rain, Overcast
 Wind from SSE
Wind: SSE 13 km/h
Temperature: 9°C
Wind Chill: 7°C
Dew Point: 9°C
Humidity: 100%
Barometer: 1018 hPa
Summary: Light rain
Clouds: Overcast
Visibility: 10 km
Cloud details: Mostly cloudy 457 m
Overcast 610 m
2021/04/19 11:30 EISG 191130Z 15007KT 130V190 9999 -RA BKN015 OVC020 09/09 Q1018
EGAE - Eglinton/Londond, United Kingdom
Distance from station: NNW 198km
Updated: 19/04/2021 12:20
Mostly cloudy
Mostly cloudy
 Wind from SSW
Wind: SSW 26 km/h
Temperature: 11°C
Dew Point: 6°C
Humidity: 72%
Barometer: 1018 hPa
Clouds: Mostly cloudy
Visibility: 10 km
Cloud details: Few Clouds 671 m
Mostly cloudy 914 m
2021/04/19 11:20 EGAE 191120Z 21014KT 9999 FEW022 BKN030 11/06 Q1018
 
EINN - Shannon Airport, Ireland
Distance from station: WSW 204km
Updated: 19/04/2021 12:30
Mostly cloudy
Mostly cloudy
 Wind from SSE
Wind: SSE 17 km/h
Temperature: 10°C
Wind Chill: 8°C
Dew Point: 7°C
Humidity: 82%
Barometer: 1018 hPa
Clouds: Mostly cloudy
Visibility: 10 km
Cloud details: Few Clouds 488 m
Mostly cloudy 1433 m
2021/04/19 11:30 EINN 191130Z 15009KT 9999 FEW016 BKN047 10/07 Q1018 NOSIG
EICK - Cork Arpt/Corcai, Ireland
Distance from station: SW 234km
Updated: 19/04/2021 12:30
Light rain, Mostly cloudy
Light rain, Mostly cloudy
 Wind from SSE
Wind: SSE 20 km/h
Temperature: 9°C
Wind Chill: 6°C
Dew Point: 6°C
Humidity: 82%
Barometer: 1018 hPa
Summary: Light rain
Clouds: Mostly cloudy
Visibility: 9 km
Cloud details: Mostly cloudy 335 m
Mostly cloudy 549 m
Mostly cloudy 975 m
2021/04/19 11:30 EICK 191130Z 15011KT 9000 -RA BKN011 BKN018 BKN032 09/06 Q1018 NOSIG